Portada
METAR-TAF:

METAR-TAF

Aeroports :

Tabuk, Aràbia Saudita

latitud: 28-22N, longitud: 036-36E, altitud: 778 m

Observació

L'informe es va fer fa 42 minuts, a les 00:00 UTC
Vent 4 kt del Oest
Temperatura 15°C
Humitat 39%
Pressió 1014 hPa
Visibilitat 10 km o més
sense núvols per sota de 1500 mi sense presència de cumulonimbus.

METAR: OETB 020000Z 27004KT CAVOK 15/01 Q1014 NOSIG

Hora: 03:42 (00:42 UTC)

Pronòstic

L'informe es va fer fa 1 hora i 42 minuts, a les 23:00 UTC
Pronòstic vàlid del 02 a les 00 UTC al 03 a les 06 UTC
Vent 3 kt amb direcció variable
Visibilitat 10 km o més
sense núvols per sota de 1500 mi sense presència de cumulonimbus.
Evolucionant progressivament
l' 02 a les 06 UTC al 02 a les 08 UTC
Vent 10 kt del Sud-Est
Evolucionant progressivament
l' 02 a les 12 UTC al 02 a les 14 UTC
Vent 10 kt del Oest

TAF: OETB 012300Z 0200/0306 VRB03KT CAVOK BECMG 0206/0208 14010KT BECMG 0212/0214 26010KT

Observacions i pronòstics meteorològics de més de 4000 aeroports (METAR i TAF).

Les estacions disponibles són els punts grocs i vermells al mapa.

Posi el ratolí al punt desitjat per veure el nom de l'estació.

Feu clic per veure les observacions i els pronòstics meteorològics.

Per canviar el mapa: feu clic els botons verds amb una creu de color negre per apropar; al botó verd amb un guió per allunyar la imatge; o en les fletxes verdes per a mapes adjacents.


METAR-TAF: